Time;durP1;ratioP1;P1;durP2;ratioP2;P2;SDS_P1;SDS_P2;PMS_P1;PMS_P2;Temp;Humidity;BMP_temperature;BMP_pressure;BME280_temperature;BME280_humidity;BME280_pressure;Samples;Min_cycle;Max_cycle;Signal;HPM_P1;HPM_P2
2022/04/15 00:01:25;;;;;;;;;21.75;18.75;;;;;16.30;61.40;102066.88;5100280;27;45701;-68
2022/04/15 00:03:52;;;;;;;;;19.25;18.25;;;;;16.28;61.41;102068.69;5088748;27;46246;-68
2022/04/15 00:06:19;;;;;;;;;16.25;14.75;;;;;16.22;61.56;102066.25;5081222;27;45287;-69
2022/04/15 00:08:47;;;;;;;;;16.00;14.25;;;;;16.20;61.73;102066.28;5081201;27;45442;-69
2022/04/15 00:11:13;;;;;;;;;17.00;15.75;;;;;16.19;61.42;102075.06;5088314;27;45386;-68
2022/04/15 00:13:41;;;;;;;;;16.50;14.75;;;;;16.16;61.71;102074.28;5100402;27;46265;-67
2022/04/15 00:16:08;;;;;;;;;21.25;17.75;;;;;16.12;62.16;102066.53;5101694;27;45819;-67
2022/04/15 00:18:34;;;;;;;;;14.25;13.50;;;;;16.12;61.79;102077.00;5098026;27;45449;-67
2022/04/15 00:21:01;;;;;;;;;21.25;20.00;;;;;16.14;62.16;102071.72;5100401;27;45322;-68
2022/04/15 00:23:26;;;;;;;;;14.00;11.25;;;;;16.15;62.09;102068.19;5101520;27;45488;-67
2022/04/15 00:25:53;;;;;;;;;17.75;16.00;;;;;16.13;62.32;102076.09;5101794;27;45305;-68
2022/04/15 00:28:19;;;;;;;;;18.50;15.75;;;;;16.11;62.27;102064.81;5089873;27;45306;-70
2022/04/15 00:30:45;;;;;;;;;17.25;16.25;;;;;16.11;62.26;102064.81;5101329;27;45346;-70
2022/04/15 00:33:10;;;;;;;;;22.50;17.00;;;;;16.10;62.14;102073.59;5101181;27;45346;-69
2022/04/15 00:35:36;;;;;;;;;20.25;17.50;;;;;16.11;62.39;102064.81;5100914;27;45341;-70
2022/04/15 00:38:02;;;;;;;;;11.25;11.00;;;;;16.05;62.29;102059.75;5101471;27;45519;-69
2022/04/15 00:40:28;;;;;;;;;16.00;14.00;;;;;16.03;62.02;102069.44;5101006;27;45686;-69
2022/04/15 00:42:53;;;;;;;;;12.00;12.00;;;;;16.04;61.98;102067.66;5100722;27;45355;-70
2022/04/15 00:45:18;;;;;;;;;9.25;9.00;;;;;16.00;62.27;102068.63;5099795;27;45552;-70
2022/04/15 00:47:48;;;;;;;;;9.50;8.00;;;;;15.96;62.35;102073.13;5101260;27;45776;-69
2022/04/15 00:50:13;;;;;;;;;13.00;10.25;;;;;15.94;62.30;102072.28;5099786;27;45295;-69
2022/04/15 00:52:47;;;;;;;;;15.00;10.25;;;;;15.92;62.46;102073.25;5096170;27;48480;-69
2022/04/15 00:55:14;;;;;;;;;9.75;7.00;;;;;15.87;62.62;102062.03;5088320;27;45410;-70
2022/04/15 00:57:44;;;;;;;;;13.00;10.25;;;;;15.87;62.93;102065.53;5100761;27;45316;-70
2022/04/15 01:00:13;;;;;;;;;9.00;8.25;;;;;15.85;62.86;102059.47;5101147;27;45488;-71
2022/04/15 01:02:39;;;;;;;;;14.50;10.50;;;;;15.86;62.82;102066.44;5100603;27;45383;-71
2022/04/15 01:05:07;;;;;;;;;12.50;9.50;;;;;15.83;62.83;102061.28;5099635;27;45325;-70
2022/04/15 01:07:34;;;;;;;;;13.75;9.50;;;;;15.83;62.96;102063.91;5101556;27;45466;-70
2022/04/15 01:10:01;;;;;;;;;8.50;8.50;;;;;15.79;63.02;102054.38;5101045;27;45502;-70
2022/04/15 01:12:29;;;;;;;;;12.00;8.50;;;;;15.82;62.89;102059.56;5112710;27;46045;-71
2022/04/15 01:15:02;;;;;;;;;13.00;10.00;;;;;15.81;63.13;102063.91;5100758;27;45358;-71
2022/04/15 01:17:37;;;;;;;;;12.50;11.00;;;;;15.79;63.07;102054.38;5099566;27;45404;-70
2022/04/15 01:20:04;;;;;;;;;13.00;10.25;;;;;15.74;63.41;102053.66;5100944;27;45313;-71
2022/04/15 01:22:43;;;;;;;;;9.50;9.00;;;;;15.81;63.38;102069.16;5099657;27;47554;-67
2022/04/15 01:25:13;;;;;;;;;9.50;9.50;;;;;15.75;63.27;102064.09;5084635;27;45277;-68
2022/04/15 01:27:40;;;;;;;;;13.50;7.00;;;;;15.77;63.28;102069.28;5081700;27;45427;-67
2022/04/15 01:30:17;;;;;;;;;8.75;8.75;;;;;15.75;63.84;102064.09;5094452;27;45604;-67
2022/04/15 01:32:43;;;;;;;;;11.00;9.25;;;;;15.72;63.58;102066.81;5098865;27;48404;-67
2022/04/15 01:35:10;;;;;;;;;8.25;7.50;;;;;15.70;64.09;102065.13;5100169;27;45367;-68
2022/04/15 01:37:37;;;;;;;;;12.75;12.00;;;;;15.69;63.97;102063.41;5100539;27;45456;-67
2022/04/15 01:40:08;;;;;;;;;12.75;9.25;;;;;15.69;63.99;102074.75;5100595;27;45310;-67
2022/04/15 01:42:36;;;;;;;;;9.00;7.50;;;;;15.65;64.36;102064.41;5100110;27;46476;-70
2022/04/15 01:45:01;;;;;;;;;15.25;10.50;;;;;15.61;64.19;102073.22;5113948;27;45263;-68
2022/04/15 01:47:27;;;;;;;;;12.00;10.25;;;;;15.61;64.16;102076.69;5100777;27;45302;-68
2022/04/15 01:49:53;;;;;;;;;7.25;7.25;;;;;15.57;64.23;102069.81;5099996;27;45479;-68
2022/04/15 01:52:18;;;;;;;;;12.25;9.00;;;;;15.58;64.44;102078.53;5098726;27;47474;-69
2022/04/15 01:54:44;;;;;;;;;8.00;7.50;;;;;15.54;64.38;102077.75;5098608;27;45559;-70
2022/04/15 01:57:11;;;;;;;;;10.50;8.75;;;;;15.52;64.35;102074.31;5111301;27;45278;-71
2022/04/15 01:59:37;;;;;;;;;8.00;7.00;;;;;15.50;64.38;102065.63;5101992;27;45437;-71
2022/04/15 02:02:03;;;;;;;;;13.50;8.50;;;;;15.49;64.35;102074.41;5099920;27;46343;-73
2022/04/15 02:04:30;;;;;;;;;13.50;8.00;;;;;15.45;64.69;102076.25;5086206;27;45695;-73
2022/04/15 02:06:56;;;;;;;;;8.50;7.00;;;;;15.43;64.80;102072.81;5115759;27;45334;-73
2022/04/15 02:09:21;;;;;;;;;13.50;10.75;;;;;15.41;64.85;102069.34;5094492;27;45383;-71
2022/04/15 02:11:47;;;;;;;;;13.25;11.00;;;;;15.34;64.82;102065.19;5091144;27;46705;-70
2022/04/15 02:14:14;;;;;;;;;14.00;9.00;;;;;15.36;65.04;102067.75;5099575;27;45494;-71
2022/04/15 02:16:41;;;;;;;;;7.00;7.00;;;;;15.31;65.42;102067.03;5098720;27;45491;-71
2022/04/15 02:19:07;;;;;;;;;11.00;10.25;;;;;15.29;65.28;102068.81;5099697;27;45252;-71
2022/04/15 02:21:32;;;;;;;;;12.00;10.50;;;;;15.26;65.32;102069.75;5097680;27;48222;-71
2022/04/15 02:23:58;;;;;;;;;8.75;8.75;;;;;15.24;65.49;102068.94;5098505;27;45349;-71
2022/04/15 02:26:24;;;;;;;;;11.25;8.50;;;;;15.19;65.84;102066.41;5099109;27;45324;-71
2022/04/15 02:28:49;;;;;;;;;13.75;12.00;;;;;15.17;65.77;102068.22;5084586;27;45547;-71
2022/04/15 02:31:14;;;;;;;;;15.50;12.00;;;;;15.16;65.53;102070.88;5101628;27;47107;-70
2022/04/15 02:33:40;;;;;;;;;12.50;12.00;;;;;15.16;65.77;102076.97;5094685;27;45549;-72
2022/04/15 02:36:05;;;;;;;;;11.00;9.25;;;;;15.14;65.98;102072.69;5099328;27;45357;-71
2022/04/15 02:38:31;;;;;;;;;16.00;14.00;;;;;15.13;66.16;102076.19;5101578;27;45596;-71
2022/04/15 02:40:56;;;;;;;;;14.75;14.00;;;;;15.09;66.40;102069.31;5103189;27;46282;-71
2022/04/15 02:43:25;;;;;;;;;10.25;10.25;;;;;15.09;66.26;102071.94;5102454;27;45282;-71
2022/04/15 02:45:51;;;;;;;;;8.75;8.75;;;;;15.07;66.54;102073.75;5101632;27;45651;-71
2022/04/15 02:48:16;;;;;;;;;13.50;11.25;;;;;15.03;67.14;102074.72;5102820;27;45252;-72
2022/04/15 02:50:42;;;;;;;;;11.25;11.25;;;;;14.98;67.50;102066.97;5103562;27;46565;-71
2022/04/15 02:53:07;;;;;;;;;12.00;12.00;;;;;14.93;67.41;102070.59;5103694;27;45155;-72
2022/04/15 02:55:33;;;;;;;;;16.50;13.00;;;;;14.89;67.64;102077.66;5103828;27;45465;-67
2022/04/15 02:57:58;;;;;;;;;12.50;12.00;;;;;14.84;67.95;102077.78;5103556;27;45719;-69
2022/04/15 03:00:24;;;;;;;;;15.25;13.25;;;;;14.81;68.07;102082.19;5102374;27;47891;-71
2022/04/15 03:02:49;;;;;;;;;13.50;12.75;;;;;14.79;68.70;102086.63;5102270;27;45596;-68
2022/04/15 03:05:14;;;;;;;;;14.25;13.00;;;;;14.73;68.98;102073.69;5103812;27;45320;-66
2022/04/15 03:07:40;;;;;;;;;15.00;13.00;;;;;14.69;68.91;102082.50;5103328;27;45438;-66
2022/04/15 03:10:07;;;;;;;;;16.50;14.75;;;;;14.65;69.49;102073.88;5103269;27;45981;-67
2022/04/15 03:12:36;;;;;;;;;14.50;12.75;;;;;14.64;69.35;102085.25;5101553;27;45845;-67
2022/04/15 03:15:04;;;;;;;;;13.25;12.50;;;;;14.60;69.51;102079.19;5103389;27;45397;-66
2022/04/15 03:17:30;;;;;;;;;13.00;11.00;;;;;14.57;69.89;102083.63;5115536;27;45466;-67
2022/04/15 03:19:56;;;;;;;;;20.75;12.00;;;;;14.53;70.31;102079.38;5103529;27;46554;-67
2022/04/15 03:22:21;;;;;;;;;13.00;11.00;;;;;14.48;70.66;102076.00;5102461;27;45371;-67
2022/04/15 03:24:49;;;;;;;;;13.50;11.50;;;;;14.42;70.81;102079.59;5101149;27;45686;-67
2022/04/15 03:27:15;;;;;;;;;12.50;11.75;;;;;14.42;71.06;102078.75;5095364;27;45669;-66
2022/04/15 03:29:40;;;;;;;;;14.75;14.25;;;;;14.39;71.02;102084.00;5090654;27;46025;-67
2022/04/15 03:32:06;;;;;;;;;17.00;14.00;;;;;14.37;71.65;102080.56;5100596;27;45614;-66
2022/04/15 03:34:32;;;;;;;;;17.75;16.00;;;;;14.32;72.17;102088.53;5100862;27;45467;-67
2022/04/15 03:36:58;;;;;;;;;19.75;15.75;;;;;14.28;71.77;102090.34;5100119;27;46093;-67
2022/04/15 03:39:23;;;;;;;;;21.25;15.00;;;;;14.25;72.15;102089.56;5102914;27;46558;-68
2022/04/15 03:41:48;;;;;;;;;17.75;17.75;;;;;14.20;72.54;102084.41;5102456;27;45436;-68
2022/04/15 03:44:14;;;;;;;;;20.75;18.50;;;;;14.15;73.19;102082.78;5101833;27;45364;-68
2022/04/15 03:46:40;;;;;;;;;19.75;17.25;;;;;14.09;72.82;102088.16;5102964;27;45358;-70
2022/04/15 03:49:07;;;;;;;;;17.50;15.25;;;;;14.11;72.61;102095.06;5100375;27;47324;-69
2022/04/15 03:51:32;;;;;;;;;21.50;18.25;;;;;14.08;72.89;102089.91;5101404;27;45486;-69
2022/04/15 03:53:57;;;;;;;;;28.50;20.50;;;;;14.10;73.16;102092.47;5103083;27;45368;-71
2022/04/15 03:56:23;;;;;;;;;21.50;17.00;;;;;14.08;73.40;102091.66;5102725;27;45392;-71
2022/04/15 03:58:48;;;;;;;;;21.75;19.50;;;;;14.04;73.35;102087.38;5102301;27;46115;-71
2022/04/15 04:01:13;;;;;;;;;21.75;19.75;;;;;14.04;73.63;102100.47;5102657;27;45380;-70
2022/04/15 04:03:39;;;;;;;;;17.00;16.50;;;;;14.02;73.19;102097.00;5102962;27;45296;-71
2022/04/15 04:06:04;;;;;;;;;14.00;13.00;;;;;14.02;72.64;102097.88;5100625;27;45686;-71
2022/04/15 04:08:29;;;;;;;;;12.00;11.25;;;;;14.00;72.67;102102.25;5102207;27;45427;-71
2022/04/15 04:10:55;;;;;;;;;16.00;14.50;;;;;13.92;73.05;102096.31;5101064;27;45198;-72
2022/04/15 04:13:21;;;;;;;;;17.00;13.25;;;;;13.95;73.11;102104.09;5102283;27;45226;-72
2022/04/15 04:15:46;;;;;;;;;19.00;14.75;;;;;13.90;73.52;102096.34;5102334;27;45286;-72
2022/04/15 04:18:14;;;;;;;;;17.75;14.75;;;;;13.90;73.09;102092.88;5102571;27;46052;-72
2022/04/15 04:20:39;;;;;;;;;15.25;11.75;;;;;13.88;73.54;102108.59;5102387;27;45828;-71
2022/04/15 04:23:05;;;;;;;;;16.25;13.25;;;;;13.87;73.22;102101.66;5102536;27;45558;-69
2022/04/15 04:25:30;;;;;;;;;12.00;10.25;;;;;13.89;73.60;102112.94;5102087;27;45340;-69
2022/04/15 04:27:55;;;;;;;;;15.25;13.00;;;;;13.86;73.59;102101.69;5101517;27;46282;-69
2022/04/15 04:30:21;;;;;;;;;17.25;12.00;;;;;13.85;74.03;102118.25;5101966;27;45359;-69
2022/04/15 04:32:49;;;;;;;;;13.25;13.00;;;;;13.78;73.80;102112.25;5102375;27;45341;-70
2022/04/15 04:35:19;;;;;;;;;11.50;10.75;;;;;13.80;73.83;102123.53;5101678;27;45388;-70
2022/04/15 04:37:45;;;;;;;;;10.75;9.50;;;;;13.75;74.77;102120.16;5101977;27;46339;-70
2022/04/15 04:40:11;;;;;;;;;14.50;11.00;;;;;13.72;74.12;102122.81;5100529;27;45752;-67
2022/04/15 04:42:37;;;;;;;;;15.25;13.00;;;;;13.67;73.86;102114.22;5101886;27;45353;-67
2022/04/15 04:45:03;;;;;;;;;14.00;10.00;;;;;13.63;73.60;102116.03;5101797;27;45432;-67
2022/04/15 04:47:29;;;;;;;;;13.75;11.50;;;;;13.63;73.08;102121.25;5100577;27;48234;-67
2022/04/15 04:49:55;;;;;;;;;13.25;10.50;;;;;13.61;73.35;102125.63;5101605;27;45292;-66
2022/04/15 04:52:23;;;;;;;;;16.25;13.00;;;;;13.55;73.91;102119.66;5101961;27;45278;-67
2022/04/15 04:54:48;;;;;;;;;12.75;11.00;;;;;13.59;74.17;102130.00;5100119;27;45501;-63
2022/04/15 04:57:14;;;;;;;;;15.75;13.25;;;;;13.57;73.96;102129.19;5101265;27;46161;-64
2022/04/15 04:59:39;;;;;;;;;8.00;8.00;;;;;13.58;74.06;102136.13;5099797;27;45738;-63
2022/04/15 05:02:05;;;;;;;;;15.75;13.25;;;;;13.57;74.43;102129.19;5101821;27;45329;-64
2022/04/15 05:04:31;;;;;;;;;15.50;12.75;;;;;13.59;74.09;102140.47;5101323;27;45321;-64
2022/04/15 05:06:56;;;;;;;;;12.75;11.00;;;;;13.57;74.58;102136.16;5101134;27;46283;-64
2022/04/15 05:09:21;;;;;;;;;16.75;14.00;;;;;13.57;74.33;102138.78;5101383;27;45267;-64
2022/04/15 05:11:47;;;;;;;;;14.75;13.00;;;;;13.57;75.24;102139.63;5099796;27;45377;-64
2022/04/15 05:14:12;;;;;;;;;18.75;17.50;;;;;13.52;75.02;102151.91;5101142;27;45444;-64
2022/04/15 05:16:37;;;;;;;;;15.25;12.00;;;;;13.52;74.77;102151.91;5096215;27;46877;-63
2022/04/15 05:19:03;;;;;;;;;19.00;16.50;;;;;13.55;74.63;102161.44;5099394;27;45362;-64
2022/04/15 05:21:28;;;;;;;;;13.25;13.00;;;;;13.50;75.17;102153.69;5101462;27;45349;-63
2022/04/15 05:23:53;;;;;;;;;16.75;11.25;;;;;13.48;74.88;102159.84;5101229;27;45301;-63
2022/04/15 05:26:20;;;;;;;;;12.75;10.50;;;;;13.46;75.90;102156.38;5099745;27;48127;-63
2022/04/15 05:28:45;;;;;;;;;16.50;12.50;;;;;13.46;74.98;102159.88;5089316;27;45735;-64
2022/04/15 05:31:11;;;;;;;;;22.00;17.75;;;;;13.51;75.13;102165.00;5100512;27;45238;-64
2022/04/15 05:33:37;;;;;;;;;17.75;14.25;;;;;13.53;75.18;102161.47;5100535;27;45165;-64
2022/04/15 05:36:03;;;;;;;;;13.00;13.00;;;;;13.53;75.10;102165.84;5100625;27;46285;-65
2022/04/15 05:38:28;;;;;;;;;15.25;13.00;;;;;13.56;74.49;102166.63;5100757;27;45332;-62
2022/04/15 05:40:54;;;;;;;;;18.75;14.25;;;;;13.58;74.55;102167.47;5099762;27;45252;-66
2022/04/15 05:43:19;;;;;;;;;15.75;14.50;;;;;13.60;75.06;102180.50;5098946;27;45524;-64
2022/04/15 05:45:45;;;;;;;;;16.50;15.75;;;;;13.58;74.67;102171.84;5099206;27;47883;-64
2022/04/15 05:48:10;;;;;;;;;18.25;15.75;;;;;13.62;74.72;102176.16;5114211;27;45294;-64
2022/04/15 05:50:35;;;;;;;;;20.50;17.00;;;;;13.64;74.65;102175.22;5099277;27;45460;-64
2022/04/15 05:53:01;;;;;;;;;20.00;17.00;;;;;13.68;74.77;102174.28;5099015;27;45510;-63
2022/04/15 05:55:26;;;;;;;;;19.25;16.00;;;;;13.70;74.59;102162.03;5100409;27;45463;-66
2022/04/15 05:57:51;;;;;;;;;20.25;16.50;;;;;13.77;74.58;102168.00;5099978;27;45378;-66
2022/04/15 06:00:18;;;;;;;;;18.75;15.75;;;;;13.78;74.48;102169.75;5100763;27;45281;-67
2022/04/15 06:02:43;;;;;;;;;34.00;23.00;;;;;13.78;74.52;102169.75;5098936;27;45556;-63
2022/04/15 06:05:09;;;;;;;;;20.75;18.25;;;;;13.87;74.35;102179.19;5100571;27;46180;-65
2022/04/15 06:07:35;;;;;;;;;25.75;22.00;;;;;13.92;74.20;102172.09;5100479;27;45219;-65
2022/04/15 06:10:01;;;;;;;;;20.50;20.25;;;;;13.98;74.02;102185.06;5100700;27;45453;-66
2022/04/15 06:12:54;;;;;;;;;23.50;21.00;;;;;14.05;74.06;102178.84;5113241;27;45325;-65
2022/04/15 06:15:23;;;;;;;;;28.00;19.50;;;;;14.14;73.56;102183.03;5099872;27;46118;-67
2022/04/15 06:17:50;;;;;;;;;17.75;17.25;;;;;14.17;73.64;102186.44;5100324;27;45289;-64
2022/04/15 06:20:17;;;;;;;;;22.50;19.00;;;;;14.24;73.56;102184.59;5100301;27;45283;-64
2022/04/15 06:22:43;;;;;;;;;19.25;18.25;;;;;14.34;73.39;102193.09;5100432;27;45493;-64
2022/04/15 06:25:09;;;;;;;;;17.00;17.00;;;;;14.36;73.40;102196.53;5099934;27;46400;-64
2022/04/15 06:27:34;;;;;;;;;20.75;17.00;;;;;14.42;73.23;102199.91;5093509;27;45188;-64
2022/04/15 06:30:00;;;;;;;;;32.50;24.25;;;;;14.46;73.21;102201.59;5094894;27;45508;-64
2022/04/15 06:32:25;;;;;;;;;20.25;19.00;;;;;14.45;73.29;102204.25;5093435;27;45662;-64
2022/04/15 06:34:51;;;;;;;;;29.50;26.00;;;;;14.44;73.14;102211.25;5093315;27;46107;-64
2022/04/15 06:37:16;;;;;;;;;29.00;23.25;;;;;14.47;73.20;102207.69;5097733;27;45308;-64
2022/04/15 06:39:42;;;;;;;;;28.25;23.25;;;;;14.56;73.00;102207.50;5100254;27;45274;-63
2022/04/15 06:42:08;;;;;;;;;26.50;23.25;;;;;14.69;73.22;102213.34;5099909;27;45373;-64
2022/04/15 06:44:37;;;;;;;;;30.75;28.00;;;;;14.78;72.87;102207.91;5099776;27;46499;-64
2022/04/15 06:47:03;;;;;;;;;36.75;29.75;;;;;14.81;72.52;102210.44;5086719;27;45322;-64
2022/04/15 06:49:28;;;;;;;;;28.25;23.50;;;;;14.83;72.45;102211.31;5100243;27;45484;-63
2022/04/15 06:51:53;;;;;;;;;26.25;23.50;;;;;14.88;72.59;102207.69;5098747;27;45531;-64
2022/04/15 06:54:19;;;;;;;;;31.25;27.25;;;;;14.98;72.22;102210.09;5099782;27;46166;-63
2022/04/15 06:56:44;;;;;;;;;32.25;25.75;;;;;15.11;71.91;102214.16;5099444;27;45370;-64
2022/04/15 06:59:09;;;;;;;;;32.25;28.00;;;;;15.19;71.71;102209.59;5099826;27;45425;-64
2022/04/15 07:01:35;;;;;;;;;26.50;23.50;;;;;15.29;71.23;102218.13;5098655;27;45627;-64
2022/04/15 07:04:02;;;;;;;;;29.25;26.00;;;;;15.41;71.18;102215.19;5099548;27;46255;-64
2022/04/15 07:06:28;;;;;;;;;36.50;32.00;;;;;15.57;70.77;102220.91;5099821;27;45393;-64
2022/04/15 07:08:54;;;;;;;;;27.50;25.25;;;;;15.66;70.60;102216.38;5099876;27;45223;-64
2022/04/15 07:11:19;;;;;;;;;33.00;28.25;;;;;15.78;69.99;102217.78;5099530;27;45401;-64
2022/04/15 07:13:45;;;;;;;;;31.25;27.25;;;;;15.90;69.61;102229.75;5099126;27;45426;-64
2022/04/15 07:16:10;;;;;;;;;32.00;27.75;;;;;15.91;69.46;102213.09;5098360;27;45816;-64
2022/04/15 07:18:35;;;;;;;;;27.50;25.25;;;;;16.06;69.52;102226.69;5099871;27;45369;-64
2022/04/15 07:21:01;;;;;;;;;31.50;26.50;;;;;16.18;68.89;102224.63;5098440;27;45259;-64
2022/04/15 07:23:26;;;;;;;;;27.25;25.75;;;;;16.30;68.64;102229.53;5101060;27;45616;-64
2022/04/15 07:25:51;;;;;;;;;25.50;22.00;;;;;16.38;67.78;102227.56;5102917;27;45230;-64
2022/04/15 07:28:17;;;;;;;;;25.50;21.50;;;;;16.45;67.89;102229.13;5093426;27;45470;-64
2022/04/15 07:30:42;;;;;;;;;27.50;26.25;;;;;16.51;67.20;102231.56;5100774;27;45441;-64
2022/04/15 07:33:07;;;;;;;;;31.50;22.50;;;;;16.50;66.94;102229.84;5114238;27;47164;-64
2022/04/15 07:35:33;;;;;;;;;25.75;21.00;;;;;16.53;66.92;102235.00;5103592;27;45358;-64
2022/04/15 07:37:58;;;;;;;;;30.75;19.25;;;;;16.57;66.54;102238.41;5102902;27;45337;-64
2022/04/15 07:40:28;;;;;;;;;28.75;24.50;;;;;16.65;66.51;102245.16;5098329;27;45574;-64
2022/04/15 07:42:57;;;;;;;;;22.00;19.75;;;;;16.72;66.20;102238.00;5097072;27;48162;-64
2022/04/15 07:45:22;;;;;;;;;31.50;23.25;;;;;16.81;66.05;102234.22;5103443;27;45479;-64
2022/04/15 07:47:48;;;;;;;;;18.00;16.00;;;;;16.80;64.19;102235.13;5098070;27;45481;-64
2022/04/15 07:50:13;;;;;;;;;19.25;17.00;;;;;16.82;65.14;102236.84;5101523;27;45543;-64
2022/04/15 07:52:39;;;;;;;;;14.50;14.25;;;;;16.89;64.93;102234.88;5102236;27;46748;-64
2022/04/15 07:55:05;;;;;;;;;19.25;18.50;;;;;16.93;64.12;102236.50;5102677;27;45243;-64
2022/04/15 07:57:30;;;;;;;;;19.25;16.75;;;;;16.98;64.62;102235.44;5102314;27;45479;-64
2022/04/15 07:59:56;;;;;;;;;14.25;13.25;;;;;17.04;63.70;102239.66;5102642;27;45366;-64
2022/04/15 08:02:21;;;;;;;;;17.00;13.75;;;;;17.14;63.81;102243.72;5102159;27;45385;-64
2022/04/15 08:04:47;;;;;;;;;14.00;12.00;;;;;17.26;63.86;102248.59;5102863;27;45157;-64
2022/04/15 08:07:12;;;;;;;;;15.50;14.75;;;;;17.36;63.53;102243.91;5102276;27;45274;-64
2022/04/15 08:09:39;;;;;;;;;8.00;8.00;;;;;17.44;62.82;102247.16;5102598;27;45244;-63
2022/04/15 08:12:08;;;;;;;;;7.50;7.25;;;;;17.43;59.91;102241.97;5101931;27;46237;-64
2022/04/15 08:14:34;;;;;;;;;7.25;7.25;;;;;17.44;61.49;102244.53;5100750;27;45381;-65
2022/04/15 08:16:59;;;;;;;;;5.00;4.00;;;;;17.51;61.71;102245.19;5102230;27;45438;-64
2022/04/15 08:19:25;;;;;;;;;9.00;7.50;;;;;17.58;61.64;102249.34;5102513;27;45425;-64
2022/04/15 08:21:51;;;;;;;;;9.25;7.75;;;;;17.67;59.94;102251.69;5102011;27;46334;-64
2022/04/15 08:24:19;;;;;;;;;8.00;6.25;;;;;17.74;59.39;102247.97;5102179;27;45220;-64
2022/04/15 08:26:45;;;;;;;;;7.25;6.00;;;;;17.74;60.50;102242.69;5100566;27;45451;-64
2022/04/15 08:29:11;;;;;;;;;8.25;5.00;;;;;17.77;60.30;102241.72;5089728;27;45614;-64
2022/04/15 08:31:36;;;;;;;;;8.25;4.75;;;;;17.79;58.69;102247.78;5088523;27;45417;-64
2022/04/15 08:34:02;;;;;;;;;5.50;5.50;;;;;17.87;60.65;102245.78;5113638;27;45386;-63
2022/04/15 08:36:27;;;;;;;;;5.50;5.00;;;;;17.93;60.07;102242.94;5094285;27;45328;-63
2022/04/15 08:38:53;;;;;;;;;3.50;3.50;;;;;18.03;59.13;102251.38;5101509;27;45389;-63
2022/04/15 08:41:21;;;;;;;;;5.25;4.00;;;;;18.07;59.43;102250.38;5101669;27;46452;-63
2022/04/15 08:43:49;;;;;;;;;7.50;5.00;;;;;18.14;57.06;102257.13;5121057;27;45902;-64
2022/04/15 08:46:16;;;;;;;;;6.00;4.25;;;;;18.16;57.67;102244.78;5087959;27;45386;-64
2022/04/15 08:48:42;;;;;;;;;9.50;8.50;;;;;18.20;58.71;102251.63;5101809;27;45454;-64
2022/04/15 08:51:08;;;;;;;;;5.75;4.25;;;;;18.18;56.50;102250.84;5099961;27;47205;-63
2022/04/15 08:53:35;;;;;;;;;5.00;4.00;;;;;18.19;57.69;102250.78;5100275;27;46314;-65
2022/04/15 08:56:01;;;;;;;;;6.00;5.50;;;;;18.20;57.57;102241.97;5101872;27;45159;-65
2022/04/15 08:58:29;;;;;;;;;2.25;2.00;;;;;18.19;57.70;102239.41;5100371;27;45261;-65
2022/04/15 09:00:54;;;;;;;;;6.00;5.75;;;;;18.18;57.81;102243.78;5100108;27;47543;-66
2022/04/15 09:03:20;;;;;;;;;6.50;5.25;;;;;18.23;58.06;102249.78;5101765;27;45284;-65
2022/04/15 09:05:51;;;;;;;;;8.25;6.00;;;;;18.29;56.65;102253.97;5101615;27;45364;-66
2022/04/15 09:08:16;;;;;;;;;7.75;6.00;;;;;18.36;57.28;102257.22;5117284;27;45492;-63
2022/04/15 09:10:42;;;;;;;;;5.75;4.00;;;;;18.43;56.58;102253.47;5101131;27;45352;-64
2022/04/15 09:13:19;;;;;;;;;5.75;5.00;;;;;18.50;55.71;102261.09;5099731;27;45294;-67
2022/04/15 09:15:44;;;;;;;;;6.00;4.00;;;;;18.54;55.89;102257.41;5101428;27;45236;-67
2022/04/15 09:18:09;;;;;;;;;18.25;13.25;;;;;18.60;56.73;102252.84;5101443;27;45317;-67
2022/04/15 09:20:35;;;;;;;;;5.00;5.00;;;;;18.67;56.56;102263.13;5100987;27;45440;-67
2022/04/15 09:23:10;;;;;;;;;8.00;7.00;;;;;18.73;56.07;102257.63;5101351;27;45387;-67
2022/04/15 09:25:39;;;;;;;;;6.75;4.00;;;;;18.78;55.77;102260.09;5100971;27;45689;-67
2022/04/15 09:28:05;;;;;;;;;9.00;4.00;;;;;18.81;55.72;102252.06;5099537;27;45515;-67
2022/04/15 09:30:41;;;;;;;;;6.00;5.00;;;;;18.90;55.17;102253.50;5100769;27;45283;-67
2022/04/15 09:33:10;;;;;;;;;9.00;6.75;;;;;18.99;56.31;102264.53;5099286;27;45583;-68
2022/04/15 09:35:35;;;;;;;;;5.25;5.25;;;;;19.04;54.39;102261.75;5097317;27;45423;-68
2022/04/15 09:38:03;;;;;;;;;5.25;4.25;;;;;19.07;53.88;102264.28;5099466;27;45399;-68
2022/04/15 09:40:32;;;;;;;;;7.25;6.25;;;;;19.07;54.24;102256.38;5099214;27;46546;-68
2022/04/15 09:42:58;;;;;;;;;5.75;5.75;;;;;19.08;54.87;102260.72;5096851;27;45726;-67
2022/04/15 09:45:35;;;;;;;;;6.00;4.00;;;;;19.21;53.33;102247.91;5099391;27;46533;-68
2022/04/15 09:48:02;;;;;;;;;3.50;3.50;;;;;19.33;54.27;102255.31;5096547;27;45369;-68
2022/04/15 09:50:28;;;;;;;;;6.00;5.00;;;;;19.42;52.14;102261.09;5097842;27;47119;-68
2022/04/15 09:53:07;;;;;;;;;4.75;4.75;;;;;19.48;52.27;102244.16;5096555;27;45693;-68
2022/04/15 09:55:33;;;;;;;;;9.50;7.50;;;;;19.54;53.83;102254.50;5099024;27;45764;-68
2022/04/15 09:58:07;;;;;;;;;5.25;5.25;;;;;19.58;53.42;102257.84;5098866;27;45310;-68
2022/04/15 10:00:35;;;;;;;;;5.75;5.75;;;;;19.56;52.71;102252.66;5098976;27;45609;-68
2022/04/15 10:03:03;;;;;;;;;6.50;5.00;;;;;19.55;52.64;102247.44;5100347;27;45285;-68
2022/04/15 10:05:30;;;;;;;;;4.50;4.50;;;;;19.58;52.52;102245.53;5100330;27;45257;-68
2022/04/15 10:07:55;;;;;;;;;5.00;4.00;;;;;19.67;52.53;102246.94;5098475;27;45575;-68
2022/04/15 10:10:21;;;;;;;;;5.50;4.00;;;;;19.76;51.61;102241.28;5100017;27;46242;-69
2022/04/15 10:12:47;;;;;;;;;5.00;5.00;;;;;19.87;52.48;102246.97;5100041;27;45235;-68
2022/04/15 10:15:14;;;;;;;;;4.25;4.25;;;;;19.90;51.59;102248.63;5099040;27;45261;-69
2022/04/15 10:17:39;;;;;;;;;4.25;4.25;;;;;19.94;51.54;102244.91;5086890;27;45573;-68
2022/04/15 10:20:08;;;;;;;;;5.00;4.00;;;;;20.04;50.22;102236.56;5112447;27;47120;-68
2022/04/15 10:22:40;;;;;;;;;5.00;2.00;;;;;20.16;50.67;102239.56;5085754;27;45362;-69
2022/04/15 10:25:07;;;;;;;;;4.00;4.00;;;;;20.16;50.97;102231.66;5100083;27;45349;-69
2022/04/15 10:27:33;;;;;;;;;3.25;3.25;;;;;20.19;50.79;102252.63;5099668;27;45470;-68
2022/04/15 10:30:18;;;;;;;;;3.00;3.00;;;;;20.19;50.19;102245.56;5098994;27;45467;-68
2022/04/15 10:32:57;;;;;;;;;2.50;2.50;;;;;20.22;49.89;102240.19;5088890;27;45315;-68
2022/04/15 10:35:31;;;;;;;;;2.75;2.75;;;;;20.26;49.28;102235.63;5099672;27;45292;-69
2022/04/15 10:38:02;;;;;;;;;4.75;3.00;;;;;20.25;49.54;102229.47;5099609;27;45540;-68
2022/04/15 10:40:36;;;;;;;;;2.75;2.75;;;;;20.27;48.10;102222.34;5097656;27;47763;-69
2022/04/15 10:43:16;;;;;;;;;5.25;5.00;;;;;20.47;48.71;102220.63;5096824;27;45755;-69
2022/04/15 10:45:41;;;;;;;;;5.00;4.00;;;;;20.58;47.37;102216.56;5098655;27;45461;-68
2022/04/15 10:48:07;;;;;;;;;2.50;2.50;;;;;20.60;47.51;102229.69;5098208;27;45480;-68
2022/04/15 10:50:34;;;;;;;;;2.00;2.00;;;;;20.60;46.35;102235.81;5098805;27;46122;-68
2022/04/15 10:53:38;;;;;;;;;4.75;2.25;;;;;20.53;48.51;102223.84;5097606;27;45168;-68
2022/04/15 10:56:08;;;;;;;;;3.00;3.00;;;;;20.60;48.58;102213.84;5042806;28;45592;-68
2022/04/15 11:01:13;;;;;;;;;2.00;2.00;;;;;20.67;47.98;102222.34;5046660;28;45598;-68
2022/04/15 11:01:32;;;;;;;;;3.25;2.75;;;;;20.59;47.51;102227.97;5082448;27;45265;-68
2022/04/15 11:04:05;;;;;;;;;7.00;5.75;;;;;20.63;47.90;102217.22;5103110;27;45373;-68
2022/04/15 11:06:30;;;;;;;;;1.75;1.75;;;;;20.74;47.61;102218.50;5090426;27;45267;-68
2022/04/15 11:08:56;;;;;;;;;5.00;4.00;;;;;20.72;46.99;102212.44;5103259;27;45302;-68
2022/04/15 11:11:36;;;;;;;;;4.75;3.00;;;;;20.78;47.04;102215.63;5102803;27;46487;-68
2022/04/15 11:14:04;;;;;;;;;3.00;3.00;;;;;20.86;46.05;102215.28;5102911;27;45172;-68